createdAt,value
2022-11-19T00:02:05.604Z,93226.00
2022-11-19T00:04:32.483Z,93222.00
2022-11-19T00:06:59.442Z,93217.00
2022-11-19T00:09:26.474Z,93217.00
2022-11-19T00:12:11.891Z,93212.00
2022-11-19T00:14:41.304Z,93207.00
2022-11-19T00:17:10.464Z,93206.00
2022-11-19T00:19:37.370Z,93215.00
2022-11-19T00:22:06.444Z,93210.00
2022-11-19T00:24:35.425Z,93210.00
2022-11-19T00:27:02.259Z,93217.00
2022-11-19T00:29:29.353Z,93220.00
2022-11-19T00:31:56.196Z,93226.00
2022-11-19T00:34:23.041Z,93221.00
2022-11-19T00:36:52.022Z,93207.00
2022-11-19T00:39:22.212Z,93210.00
2022-11-19T00:41:49.248Z,93209.00
2022-11-19T00:44:16.128Z,93209.00
2022-11-19T00:46:43.280Z,93226.00
2022-11-19T00:49:12.550Z,93217.00
2022-11-19T00:51:41.954Z,93219.00
2022-11-19T00:54:11.337Z,93221.00
2022-11-19T00:56:38.278Z,93221.00
2022-11-19T00:59:07.669Z,93231.00
2022-11-19T01:01:36.690Z,93233.00
2022-11-19T01:04:03.856Z,93232.00
2022-11-19T01:06:35.581Z,93238.00
2022-11-19T01:09:04.952Z,93228.00
2022-11-19T01:11:34.891Z,93235.00
2022-11-19T01:14:03.125Z,93237.00
2022-11-19T01:16:33.857Z,93236.00
2022-11-19T01:19:02.826Z,93237.00
2022-11-19T01:21:32.723Z,93237.00
2022-11-19T01:24:00.441Z,93234.00
2022-11-19T01:26:32.436Z,93228.00
2022-11-19T01:28:59.856Z,93235.00
2022-11-19T01:31:30.150Z,93233.00
2022-11-19T01:34:00.231Z,93231.00
2022-11-19T01:36:29.487Z,93240.00
2022-11-19T01:38:57.423Z,93235.00
2022-11-19T01:41:30.932Z,93235.00
2022-11-19T01:44:00.266Z,93242.00
2022-11-19T01:46:30.750Z,93237.00
2022-11-19T01:49:15.042Z,93235.00
2022-11-19T01:52:01.147Z,93241.00
2022-11-19T01:54:41.623Z,93245.00
2022-11-19T01:57:14.979Z,93245.00
2022-11-19T01:59:46.002Z,93237.00
2022-11-19T02:02:12.948Z,93251.00
2022-11-19T02:04:45.525Z,93255.00
2022-11-19T02:07:14.046Z,93257.00
2022-11-19T02:09:41.308Z,93252.00
2022-11-19T02:12:36.561Z,93256.00
2022-11-19T02:15:06.247Z,93250.00
2022-11-19T02:18:04.018Z,93242.00
2022-11-19T02:20:52.569Z,93247.00
2022-11-19T02:23:48.367Z,93246.00
2022-11-19T02:26:45.295Z,93245.00
2022-11-19T02:29:30.460Z,93243.00
2022-11-19T02:32:05.525Z,93241.00
2022-11-19T02:35:07.671Z,93240.00
2022-11-19T02:37:49.984Z,93247.00
2022-11-19T02:40:28.235Z,93248.00
2022-11-19T02:43:22.527Z,93250.00
2022-11-19T02:46:15.180Z,93258.00
2022-11-19T02:48:54.752Z,93245.00
2022-11-19T02:51:22.476Z,93254.00
2022-11-19T02:53:49.306Z,93255.00
2022-11-19T02:56:54.089Z,93262.00
2022-11-19T03:00:06.789Z,93259.00
2022-11-19T03:03:15.239Z,93244.00
2022-11-19T03:05:49.747Z,93250.00
2022-11-19T03:08:16.991Z,93257.00
2022-11-19T03:11:04.297Z,93267.00
2022-11-19T03:14:10.103Z,93265.00
2022-11-19T03:16:53.550Z,93270.00
2022-11-19T03:20:01.422Z,93275.00
2022-11-19T03:22:35.228Z,93273.00
2022-11-19T03:25:12.628Z,93267.00
2022-11-19T03:27:45.585Z,93262.00
2022-11-19T03:30:18.523Z,93253.00
2022-11-19T03:32:55.101Z,93246.00
2022-11-19T03:35:35.949Z,93256.00
2022-11-19T03:38:07.652Z,93249.00
2022-11-19T03:40:35.623Z,93257.00
2022-11-19T03:43:05.676Z,93249.00
2022-11-19T03:45:43.008Z,93251.00
2022-11-19T03:48:12.754Z,93245.00
2022-11-19T03:51:12.521Z,93246.00
2022-11-19T03:53:42.136Z,93250.00
2022-11-19T03:56:13.070Z,93253.00
2022-11-19T03:58:45.866Z,93253.00
2022-11-19T04:01:15.989Z,93251.00
2022-11-19T04:04:02.874Z,93253.00
2022-11-19T04:06:34.367Z,93254.00
2022-11-19T04:09:01.187Z,93257.00
2022-11-19T04:11:30.386Z,93260.00
2022-11-19T04:13:59.441Z,93256.00
2022-11-19T04:16:26.293Z,93256.00
2022-11-19T04:18:53.342Z,93256.00
2022-11-19T04:21:25.299Z,93255.00
2022-11-19T04:23:52.170Z,93250.00
2022-11-19T04:26:19.071Z,93260.00
2022-11-19T04:28:45.892Z,93259.00
2022-11-19T04:31:17.997Z,93265.00
2022-11-19T04:33:47.924Z,93261.00
2022-11-19T04:36:19.736Z,93263.00
2022-11-19T04:38:46.612Z,93263.00
2022-11-19T04:41:15.697Z,93259.00
2022-11-19T04:43:42.637Z,93249.00
2022-11-19T04:46:09.510Z,93271.00
2022-11-19T04:48:36.372Z,93258.00
2022-11-19T04:51:03.237Z,93262.00
2022-11-19T04:53:30.115Z,93229.00
2022-11-19T04:55:59.192Z,93269.00
2022-11-19T04:58:26.051Z,93270.00
2022-11-19T05:00:55.218Z,93269.00
2022-11-19T05:03:22.130Z,93277.00
2022-11-19T05:05:49.016Z,93275.00
2022-11-19T05:08:15.888Z,93281.00
2022-11-19T05:10:44.454Z,93285.00
2022-11-19T05:13:13.972Z,93288.00
2022-11-19T05:15:45.422Z,93286.00
2022-11-19T05:18:13.471Z,93278.00
2022-11-19T05:20:42.825Z,93279.00
2022-11-19T05:23:09.640Z,93285.00
2022-11-19T05:25:36.577Z,93282.00
2022-11-19T05:28:03.541Z,93286.00
2022-11-19T05:30:30.559Z,93280.00
2022-11-19T05:32:57.570Z,93290.00
2022-11-19T05:35:24.481Z,93285.00
2022-11-19T05:37:51.504Z,93283.00
2022-11-19T05:40:18.671Z,93282.00
2022-11-19T05:42:45.735Z,93286.00
2022-11-19T05:45:15.131Z,93292.00
2022-11-19T05:47:45.986Z,93289.00
2022-11-19T05:50:15.628Z,93284.00
2022-11-19T05:52:42.585Z,93294.00
2022-11-19T05:55:09.560Z,93295.00
2022-11-19T05:57:37.068Z,93297.00
2022-11-19T06:00:08.051Z,93289.00
2022-11-19T06:02:37.282Z,93294.00
2022-11-19T06:05:05.214Z,93302.00
2022-11-19T06:07:34.616Z,93301.00
2022-11-19T06:10:01.560Z,93299.00
2022-11-19T06:12:30.879Z,93307.00
2022-11-19T06:15:01.982Z,93309.00
2022-11-19T06:17:29.266Z,93315.00
2022-11-19T06:19:56.240Z,93314.00
2022-11-19T06:22:27.739Z,93318.00
2022-11-19T06:24:54.642Z,93305.00
2022-11-19T06:27:21.572Z,93324.00
2022-11-19T06:29:53.526Z,93320.00
2022-11-19T06:32:23.578Z,93321.00
2022-11-19T06:34:52.838Z,93316.00
2022-11-19T06:37:19.679Z,93307.00
2022-11-19T06:39:49.037Z,93316.00
2022-11-19T06:42:34.379Z,93323.00
2022-11-19T06:45:10.821Z,93323.00
2022-11-19T06:47:39.372Z,93332.00
2022-11-19T06:50:09.093Z,93334.00
2022-11-19T06:52:38.287Z,93338.00
2022-11-19T06:55:05.833Z,93339.00
2022-11-19T06:57:32.742Z,93341.00
2022-11-19T07:00:01.756Z,93344.00
2022-11-19T07:02:30.845Z,93343.00
2022-11-19T07:04:57.762Z,93354.00
2022-11-19T07:07:24.783Z,93357.00
2022-11-19T07:09:54.042Z,93365.00
2022-11-19T07:12:20.865Z,93362.00
2022-11-19T07:14:47.830Z,93362.00
2022-11-19T07:17:17.084Z,93370.00
2022-11-19T07:19:48.482Z,93371.00
2022-11-19T07:22:17.415Z,93375.00
2022-11-19T07:24:49.369Z,93372.00
2022-11-19T07:27:16.922Z,93373.00
2022-11-19T07:29:43.858Z,93379.00
2022-11-19T07:32:12.846Z,93382.00
2022-11-19T07:34:42.437Z,93367.00
2022-11-19T07:37:14.050Z,93383.00
2022-11-19T07:39:43.356Z,93381.00
2022-11-19T07:42:28.509Z,93387.00
2022-11-19T07:44:57.417Z,93386.00
2022-11-19T07:47:24.370Z,93393.00
2022-11-19T07:49:51.355Z,93390.00
2022-11-19T07:52:18.498Z,93394.00
2022-11-19T07:54:48.358Z,93408.00
2022-11-19T07:57:15.296Z,93398.00
2022-11-19T07:59:42.244Z,93411.00
2022-11-19T08:02:16.485Z,93410.00
2022-11-19T08:04:45.773Z,93408.00
2022-11-19T08:07:15.714Z,93400.00
2022-11-19T08:09:42.775Z,93401.00
2022-11-19T08:12:09.816Z,93394.00
2022-11-19T08:14:38.898Z,93408.00
2022-11-19T08:17:24.192Z,93409.00
2022-11-19T08:19:53.679Z,93404.00
2022-11-19T08:22:20.538Z,93401.00
2022-11-19T08:24:47.477Z,93390.00
2022-11-19T08:27:19.657Z,93396.00
2022-11-19T08:29:51.294Z,93387.00
2022-11-19T08:32:18.067Z,93400.00
2022-11-19T08:34:44.952Z,93391.00
2022-11-19T08:37:13.610Z,93390.00
2022-11-19T08:39:43.186Z,93394.00
2022-11-19T08:42:28.966Z,93388.00
2022-11-19T08:44:58.658Z,93391.00
2022-11-19T08:47:28.122Z,93383.00
2022-11-19T08:49:57.799Z,93399.00
2022-11-19T08:52:24.691Z,93394.00
2022-11-19T08:54:52.093Z,93398.00
2022-11-19T08:57:21.021Z,93411.00
2022-11-19T08:59:50.333Z,93397.00
2022-11-19T09:02:19.682Z,93396.00
2022-11-19T09:04:48.854Z,93392.00
2022-11-19T09:07:15.797Z,93386.00
2022-11-19T09:09:45.170Z,93391.00
2022-11-19T09:12:12.196Z,93394.00
2022-11-19T09:14:39.079Z,93407.00
2022-11-19T09:17:08.475Z,93400.00
2022-11-19T09:19:35.436Z,93408.00
2022-11-19T09:22:02.345Z,93417.00
2022-11-19T09:24:29.274Z,93430.00
2022-11-19T09:27:02.516Z,93427.00
2022-11-19T09:29:31.592Z,93432.00
2022-11-19T09:31:58.816Z,93431.00
2022-11-19T09:34:25.725Z,93424.00
2022-11-19T09:36:52.646Z,93433.00
2022-11-19T09:39:21.850Z,93421.00
2022-11-19T09:42:12.095Z,93424.00
2022-11-19T09:45:15.914Z,93423.00
2022-11-19T09:48:09.371Z,93423.00
2022-11-19T09:50:54.346Z,93425.00
2022-11-19T09:53:30.353Z,93427.00
2022-11-19T09:55:59.190Z,93425.00
2022-11-19T09:58:31.237Z,93417.00
2022-11-19T10:01:01.403Z,93413.00
2022-11-19T10:03:33.164Z,93420.00
2022-11-19T10:06:26.178Z,93416.00
2022-11-19T10:09:23.798Z,93418.00
2022-11-19T10:12:05.479Z,93411.00
2022-11-19T10:14:44.428Z,93413.00
2022-11-19T10:17:38.114Z,93410.00
2022-11-19T10:20:32.328Z,93409.00
2022-11-19T10:23:48.544Z,93411.00
2022-11-19T10:26:26.933Z,93414.00
2022-11-19T10:28:58.445Z,93410.00
2022-11-19T10:31:39.264Z,93401.00
2022-11-19T10:34:30.381Z,93413.00
2022-11-19T10:37:07.502Z,93408.00
2022-11-19T10:39:57.760Z,93410.00
2022-11-19T10:42:41.450Z,93398.00
2022-11-19T10:45:31.570Z,93397.00
2022-11-19T10:48:12.410Z,93397.00
2022-11-19T10:50:40.211Z,93393.00
2022-11-19T10:53:33.143Z,93393.00
2022-11-19T10:56:10.035Z,93397.00
2022-11-19T10:58:49.256Z,93386.00
2022-11-19T11:01:40.254Z,93389.00
2022-11-19T11:04:26.309Z,93389.00
2022-11-19T11:07:06.984Z,93391.00
2022-11-19T11:09:43.046Z,93385.00
2022-11-19T11:13:01.903Z,93385.00
2022-11-19T11:15:31.338Z,93382.00
2022-11-19T11:18:10.069Z,93379.00
2022-11-19T11:20:38.925Z,93372.00
2022-11-19T11:23:17.628Z,93378.00
2022-11-19T11:26:07.365Z,93375.00
2022-11-19T11:28:35.479Z,93367.00
2022-11-19T11:31:09.939Z,93368.00
2022-11-19T11:33:41.506Z,93377.00
2022-11-19T11:36:11.861Z,93372.00
2022-11-19T11:38:45.570Z,93369.00
2022-11-19T11:44:14.476Z,93362.00
2022-11-19T11:46:51.148Z,93374.00
2022-11-19T11:49:36.145Z,93370.00
2022-11-19T11:52:19.957Z,93368.00
2022-11-19T11:55:06.743Z,93372.00
2022-11-19T11:57:50.788Z,93372.00
2022-11-19T12:00:55.660Z,93370.00
2022-11-19T12:03:23.774Z,93366.00
2022-11-19T12:06:02.440Z,93368.00
2022-11-19T12:08:51.029Z,93371.00
2022-11-19T12:11:56.009Z,93366.00
2022-11-19T12:14:54.876Z,93372.00
2022-11-19T12:17:50.363Z,93364.00
2022-11-19T12:20:29.406Z,93369.00
2022-11-19T12:23:37.180Z,93372.00
2022-11-19T12:27:03.733Z,93368.00
2022-11-19T12:30:09.412Z,93365.00
2022-11-19T12:33:20.165Z,93368.00
2022-11-19T12:36:43.482Z,93361.00
2022-11-19T12:39:46.752Z,93363.00
2022-11-19T12:42:31.070Z,93366.00
2022-11-19T12:45:17.483Z,93362.00
2022-11-19T12:47:56.118Z,93370.00
2022-11-19T12:50:58.235Z,93377.00
2022-11-19T12:53:56.226Z,93366.00
2022-11-19T12:57:25.529Z,93365.00
2022-11-19T13:00:20.228Z,93368.00
2022-11-19T13:03:08.830Z,93367.00
2022-11-19T13:06:06.977Z,93375.00
2022-11-19T13:08:54.836Z,93369.00
2022-11-19T13:11:43.422Z,93373.00
2022-11-19T13:14:43.197Z,93364.00
2022-11-19T13:17:28.822Z,93370.00
2022-11-19T13:20:23.402Z,93360.00
2022-11-19T13:23:02.319Z,93370.00
2022-11-19T13:25:47.711Z,93373.00
2022-11-19T13:28:40.749Z,93366.00
2022-11-19T13:31:43.687Z,93375.00
2022-11-19T13:34:33.298Z,93380.00
2022-11-19T13:37:14.932Z,93383.00
2022-11-19T13:39:56.167Z,93377.00
2022-11-19T13:42:42.796Z,93378.00
2022-11-19T13:45:17.694Z,93370.00
2022-11-19T13:47:59.386Z,93376.00
2022-11-19T13:50:41.886Z,93376.00
2022-11-19T13:53:22.495Z,93376.00
2022-11-19T13:55:58.369Z,93373.00
2022-11-19T13:58:37.817Z,93370.00
2022-11-19T14:01:08.667Z,93366.00
2022-11-19T14:04:16.532Z,93373.00
2022-11-19T14:07:05.316Z,93378.00
2022-11-19T14:10:08.663Z,93384.00
2022-11-19T14:13:07.741Z,93382.00
2022-11-19T14:16:55.878Z,93382.00
2022-11-19T14:19:41.683Z,93379.00
2022-11-19T14:22:52.982Z,93372.00
2022-11-19T14:26:05.145Z,93382.00
2022-11-19T14:28:45.409Z,93388.00
2022-11-19T14:31:13.649Z,93392.00
2022-11-19T14:33:49.263Z,93388.00
2022-11-19T14:36:47.733Z,93375.00
2022-11-19T14:39:25.422Z,93383.00
2022-11-19T14:42:12.447Z,93382.00
2022-11-19T14:44:39.388Z,93387.00
2022-11-19T14:47:28.621Z,93382.00
2022-11-19T14:49:57.555Z,93384.00
2022-11-19T14:52:31.118Z,93377.00
2022-11-19T14:55:26.687Z,93381.00
2022-11-19T14:58:02.106Z,93388.00
2022-11-19T15:00:37.453Z,93390.00
2022-11-19T15:03:15.629Z,93394.00
2022-11-19T15:05:48.198Z,93392.00
2022-11-19T15:08:18.323Z,93392.00
2022-11-19T15:11:11.356Z,93403.00
2022-11-19T15:13:49.526Z,93397.00
2022-11-19T15:16:21.850Z,93410.00
2022-11-19T15:19:11.053Z,93411.00
2022-11-19T15:22:00.381Z,93407.00
2022-11-19T15:24:44.598Z,93403.00
2022-11-19T15:27:46.668Z,93404.00
2022-11-19T15:30:46.368Z,93395.00
2022-11-19T15:33:29.723Z,93398.00
2022-11-19T15:36:31.791Z,93403.00
2022-11-19T15:39:22.317Z,93417.00
2022-11-19T15:42:02.210Z,93420.00
2022-11-19T15:44:53.850Z,93413.00
2022-11-19T15:47:37.362Z,93428.00
2022-11-19T15:50:09.327Z,93427.00
2022-11-19T15:52:36.268Z,93426.00
2022-11-19T15:55:19.567Z,93425.00
2022-11-19T15:57:56.064Z,93422.00
2022-11-19T16:00:23.612Z,93425.00
2022-11-19T16:02:52.831Z,93424.00
2022-11-19T16:05:32.642Z,93430.00
2022-11-19T16:08:05.549Z,93433.00
2022-11-19T16:10:41.069Z,93432.00
2022-11-19T16:14:12.768Z,93435.00
2022-11-19T16:16:58.469Z,93422.00
2022-11-19T16:19:25.338Z,93437.00
2022-11-19T16:22:00.966Z,93445.00
2022-11-19T16:24:49.554Z,93441.00
2022-11-19T16:27:23.676Z,93445.00
2022-11-19T16:29:54.160Z,93451.00
2022-11-19T16:32:25.049Z,93452.00
2022-11-19T16:34:54.462Z,93453.00
2022-11-19T16:37:27.369Z,93453.00
2022-11-19T16:39:54.368Z,93458.00
2022-11-19T16:42:28.990Z,93455.00
2022-11-19T16:45:06.941Z,93463.00
2022-11-19T16:47:39.585Z,93460.00
2022-11-19T16:50:29.132Z,93456.00
2022-11-19T16:52:59.588Z,93458.00
2022-11-19T16:55:26.455Z,93469.00
2022-11-19T16:57:59.094Z,93459.00
2022-11-19T17:00:32.147Z,93466.00
2022-11-19T17:02:59.249Z,93473.00
2022-11-19T17:05:28.663Z,93466.00
2022-11-19T17:08:18.440Z,93464.00
2022-11-19T17:10:45.569Z,93467.00
2022-11-19T17:13:30.744Z,93477.00
2022-11-19T17:16:18.273Z,93483.00
2022-11-19T17:18:47.419Z,93481.00
2022-11-19T17:21:27.556Z,93488.00
2022-11-19T17:23:54.655Z,93483.00
2022-11-19T17:26:26.612Z,93479.00
2022-11-19T17:29:11.397Z,93484.00
2022-11-19T17:31:46.475Z,93499.00
2022-11-19T17:34:32.389Z,93491.00
2022-11-19T17:37:02.039Z,93505.00
2022-11-19T17:39:29.016Z,93509.00
2022-11-19T17:42:15.450Z,93510.00
2022-11-19T17:44:42.633Z,93516.00
2022-11-19T17:47:24.337Z,93528.00
2022-11-19T17:49:52.503Z,93515.00
2022-11-19T17:52:27.157Z,93505.00
2022-11-19T17:55:00.652Z,93511.00
2022-11-19T17:57:27.706Z,93523.00
2022-11-19T17:59:54.748Z,93512.00
2022-11-19T18:02:22.347Z,93510.00
2022-11-19T18:04:51.820Z,93521.00
2022-11-19T18:07:18.868Z,93524.00
2022-11-19T18:09:46.004Z,93534.00
2022-11-19T18:12:19.998Z,93529.00
2022-11-19T18:14:47.594Z,93531.00
2022-11-19T18:17:17.391Z,93527.00
2022-11-19T18:19:46.795Z,93535.00
2022-11-19T18:22:19.037Z,93535.00
2022-11-19T18:24:52.702Z,93526.00
2022-11-19T18:27:22.598Z,93535.00
2022-11-19T18:29:49.570Z,93540.00
2022-11-19T18:32:16.994Z,93540.00
2022-11-19T18:34:45.720Z,93535.00
2022-11-19T18:37:15.374Z,93537.00
2022-11-19T18:39:42.438Z,93533.00
2022-11-19T18:42:12.154Z,93549.00
2022-11-19T18:44:41.648Z,93545.00
2022-11-19T18:47:14.045Z,93548.00
2022-11-19T18:49:41.832Z,93532.00
2022-11-19T18:52:15.232Z,93552.00
2022-11-19T18:54:42.534Z,93555.00
2022-11-19T18:57:12.908Z,93554.00
2022-11-19T18:59:40.015Z,93553.00
2022-11-19T19:02:07.119Z,93556.00
2022-11-19T19:04:36.152Z,93562.00
2022-11-19T19:07:05.629Z,93557.00
2022-11-19T19:09:37.773Z,93560.00
2022-11-19T19:12:19.633Z,93548.00
2022-11-19T19:14:51.639Z,93567.00
2022-11-19T19:17:19.740Z,93560.00
2022-11-19T19:19:46.950Z,93572.00
2022-11-19T19:22:13.982Z,93580.00
2022-11-19T19:24:41.045Z,93575.00
2022-11-19T19:27:08.001Z,93578.00
2022-11-19T19:29:37.594Z,93586.00
2022-11-19T19:32:04.966Z,93582.00
2022-11-19T19:34:31.999Z,93586.00
2022-11-19T19:36:58.983Z,93586.00
2022-11-19T19:39:26.261Z,93586.00
2022-11-19T19:41:56.199Z,93586.00
2022-11-19T19:44:23.140Z,93588.00
2022-11-19T19:46:52.640Z,93578.00
2022-11-19T19:49:24.335Z,93588.00
2022-11-19T19:51:51.561Z,93573.00
2022-11-19T19:54:18.501Z,93588.00
2022-11-19T19:56:45.442Z,93578.00
2022-11-19T19:59:13.852Z,93588.00
2022-11-19T20:01:44.304Z,93582.00
2022-11-19T20:04:11.800Z,93576.00
2022-11-19T20:06:46.373Z,93577.00
2022-11-19T20:09:16.582Z,93581.00
2022-11-19T20:11:45.929Z,93583.00
2022-11-19T20:14:13.008Z,93594.00
2022-11-19T20:16:43.625Z,93597.00
2022-11-19T20:19:16.211Z,93592.00
2022-11-19T20:21:47.195Z,93591.00
2022-11-19T20:24:14.260Z,93590.00
2022-11-19T20:26:42.740Z,93596.00
2022-11-19T20:29:14.754Z,93589.00
2022-11-19T20:31:47.190Z,93606.00
2022-11-19T20:34:17.835Z,93605.00
2022-11-19T20:36:44.834Z,93590.00
2022-11-19T20:39:16.341Z,93606.00
2022-11-19T20:42:03.972Z,93598.00
2022-11-19T20:44:31.053Z,93590.00
2022-11-19T20:47:02.397Z,93598.00
2022-11-19T20:49:35.306Z,93595.00
2022-11-19T20:52:03.261Z,93596.00
2022-11-19T20:54:31.654Z,93610.00
2022-11-19T20:57:03.833Z,93611.00
2022-11-19T20:59:31.308Z,93604.00
2022-11-19T21:02:00.447Z,93609.00
2022-11-19T21:04:36.271Z,93596.00
2022-11-19T21:07:04.645Z,93604.00
2022-11-19T21:09:34.016Z,93598.00
2022-11-19T21:12:02.023Z,93601.00
2022-11-19T21:14:28.972Z,93602.00
2022-11-19T21:16:58.091Z,93603.00
2022-11-19T21:19:28.070Z,93607.00
2022-11-19T21:21:54.954Z,93603.00
2022-11-19T21:24:21.947Z,93593.00
2022-11-19T21:26:49.112Z,93596.00
2022-11-19T21:29:18.575Z,93582.00
2022-11-19T21:31:49.063Z,93594.00
2022-11-19T21:34:22.065Z,93595.00
2022-11-19T21:36:52.966Z,93588.00
2022-11-19T21:39:20.377Z,93599.00
2022-11-19T21:41:47.779Z,93593.00
2022-11-19T21:44:19.906Z,93597.00
2022-11-19T21:46:50.836Z,93593.00
2022-11-19T21:49:21.146Z,93594.00
2022-11-19T21:51:49.011Z,93599.00
2022-11-19T21:54:18.922Z,93602.00
2022-11-19T21:56:48.299Z,93594.00
2022-11-19T21:59:15.287Z,93591.00
2022-11-19T22:01:43.390Z,93596.00
2022-11-19T22:04:13.670Z,93598.00
2022-11-19T22:06:41.692Z,93593.00
2022-11-19T22:09:08.890Z,93603.00
2022-11-19T22:11:35.872Z,93599.00
2022-11-19T22:14:08.727Z,93607.00
2022-11-19T22:16:40.470Z,93601.00
2022-11-19T22:19:07.529Z,93598.00
2022-11-19T22:21:37.831Z,93598.00
2022-11-19T22:24:05.196Z,93601.00
2022-11-19T22:26:34.713Z,93601.00
2022-11-19T22:29:04.266Z,93606.00
2022-11-19T22:31:32.905Z,93604.00
2022-11-19T22:33:59.803Z,93596.00
2022-11-19T22:36:34.869Z,93596.00
2022-11-19T22:39:06.778Z,93606.00
2022-11-19T22:41:34.756Z,93605.00
2022-11-19T22:44:02.160Z,93614.00
2022-11-19T22:46:29.223Z,93614.00
2022-11-19T22:48:58.488Z,93607.00
2022-11-19T22:51:28.871Z,93607.00
2022-11-19T22:53:56.589Z,93604.00
2022-11-19T22:56:29.761Z,93604.00
2022-11-19T22:58:57.679Z,93606.00
2022-11-19T23:01:28.749Z,93599.00
2022-11-19T23:03:57.386Z,93607.00
2022-11-19T23:06:25.562Z,93602.00
2022-11-19T23:08:58.454Z,93605.00
2022-11-19T23:11:45.089Z,93616.00
2022-11-19T23:14:20.653Z,93603.00
2022-11-19T23:16:49.009Z,93614.00
2022-11-19T23:19:22.292Z,93602.00
2022-11-19T23:21:50.542Z,93614.00
2022-11-19T23:24:17.654Z,93604.00
2022-11-19T23:26:47.618Z,93608.00
2022-11-19T23:29:17.220Z,93606.00
2022-11-19T23:31:47.204Z,93606.00
2022-11-19T23:34:15.595Z,93604.00
2022-11-19T23:36:42.919Z,93601.00
2022-11-19T23:39:15.793Z,93606.00
2022-11-19T23:41:43.116Z,93591.00
2022-11-19T23:44:13.169Z,93602.00
2022-11-19T23:46:43.849Z,93606.00
2022-11-19T23:49:11.342Z,93601.00
2022-11-19T23:51:38.965Z,93601.00
2022-11-19T23:54:07.665Z,93599.00
2022-11-19T23:56:37.361Z,93589.00
2022-11-19T23:59:06.053Z,93608.00
